sensor_id;sensor_type;location;lat;lon;timestamp;pressure;altitude;pressure_sealevel;temperature;humidity
79006;BME280;69202;45.498;-73.582;2023-05-07T00:00:39;101114.16;;;23.60;19.97
79006;BME280;69202;45.498;-73.582;2023-05-07T00:03:05;101044.03;;;23.15;21.95
79006;BME280;69202;45.498;-73.582;2023-05-07T00:05:32;101122.94;;;23.52;21.20
79006;BME280;69202;45.498;-73.582;2023-05-07T00:07:58;101077.38;;;23.09;20.35
79006;BME280;69202;45.498;-73.582;2023-05-07T00:10:24;101092.59;;;23.16;20.11
79006;BME280;69202;45.498;-73.582;2023-05-07T00:12:51;101171.84;;;23.61;20.27
79006;BME280;69202;45.498;-73.582;2023-05-07T00:15:18;101161.88;;;23.55;20.77
79006;BME280;69202;45.498;-73.582;2023-05-07T00:17:44;101121.28;;;23.25;20.58
79006;BME280;69202;45.498;-73.582;2023-05-07T00:20:10;101145.00;;;23.31;20.47
79006;BME280;69202;45.498;-73.582;2023-05-07T00:22:37;101154.94;;;23.32;20.71
79006;BME280;69202;45.498;-73.582;2023-05-07T00:25:04;101162.13;;;23.39;20.56
79006;BME280;69202;45.498;-73.582;2023-05-07T00:27:30;101106.63;;;22.94;20.78
79006;BME280;69202;45.498;-73.582;2023-05-07T00:29:56;101142.50;;;23.15;21.18
79006;BME280;69202;45.498;-73.582;2023-05-07T00:32:22;101141.38;;;23.11;20.96
79006;BME280;69202;45.498;-73.582;2023-05-07T00:34:48;101089.69;;;22.70;21.09
79006;BME280;69202;45.498;-73.582;2023-05-07T00:37:14;101144.66;;;22.97;21.00
79006;BME280;69202;45.498;-73.582;2023-05-07T00:39:40;101178.63;;;23.13;20.98
79006;BME280;69202;45.498;-73.582;2023-05-07T00:42:06;101160.34;;;22.92;21.01
79006;BME280;69202;45.498;-73.582;2023-05-07T00:44:32;101119.97;;;22.60;21.11
79006;BME280;69202;45.498;-73.582;2023-05-07T00:46:58;101125.44;;;22.50;21.27
79006;BME280;69202;45.498;-73.582;2023-05-07T00:49:42;101162.56;;;22.85;21.66
79006;BME280;69202;45.498;-73.582;2023-05-07T00:52:14;101174.97;;;22.92;22.42
79006;BME280;69202;45.498;-73.582;2023-05-07T00:54:41;101161.41;;;22.81;23.19
79006;BME280;69202;45.498;-73.582;2023-05-07T00:57:09;101161.34;;;22.65;23.40
79006;BME280;69202;45.498;-73.582;2023-05-07T00:59:35;101182.63;;;22.75;23.45
79006;BME280;69202;45.498;-73.582;2023-05-07T01:02:01;101085.78;;;22.04;24.46
79006;BME280;69202;45.498;-73.582;2023-05-07T01:04:27;101181.44;;;22.61;24.77
79006;BME280;69202;45.498;-73.582;2023-05-07T01:06:55;101169.47;;;22.40;24.30
79006;BME280;69202;45.498;-73.582;2023-05-07T01:09:23;101163.38;;;22.33;24.54
79006;BME280;69202;45.498;-73.582;2023-05-07T01:11:49;101198.72;;;22.46;23.97
79006;BME280;69202;45.498;-73.582;2023-05-07T01:14:16;101155.19;;;22.06;23.82
79006;BME280;69202;45.498;-73.582;2023-05-07T01:16:42;101058.75;;;21.53;24.02
79006;BME280;69202;45.498;-73.582;2023-05-07T01:19:09;101153.28;;;22.06;24.01
79006;BME280;69202;45.498;-73.582;2023-05-07T01:21:38;101148.50;;;21.97;24.82
79006;BME280;69202;45.498;-73.582;2023-05-07T01:24:04;101170.38;;;22.08;24.38
79006;BME280;69202;45.498;-73.582;2023-05-07T01:26:31;101156.47;;;21.93;24.76
79006;BME280;69202;45.498;-73.582;2023-05-07T01:28:57;101154.78;;;21.87;24.32
79006;BME280;69202;45.498;-73.582;2023-05-07T01:31:24;101119.06;;;21.60;24.86
79006;BME280;69202;45.498;-73.582;2023-05-07T01:33:51;101202.38;;;22.09;25.27
79006;BME280;69202;45.498;-73.582;2023-05-07T01:36:18;101209.22;;;22.07;25.09
79006;BME280;69202;45.498;-73.582;2023-05-07T01:38:46;101200.00;;;21.96;25.25
79006;BME280;69202;45.498;-73.582;2023-05-07T01:41:12;101206.41;;;22.02;25.20
79006;BME280;69202;45.498;-73.582;2023-05-07T01:43:40;101101.59;;;21.44;24.96
79006;BME280;69202;45.498;-73.582;2023-05-07T01:46:08;101175.16;;;21.86;25.46
79006;BME280;69202;45.498;-73.582;2023-05-07T01:48:35;101186.72;;;21.88;25.98
79006;BME280;69202;45.498;-73.582;2023-05-07T01:51:01;101163.66;;;21.62;26.38
79006;BME280;69202;45.498;-73.582;2023-05-07T01:53:28;101211.50;;;21.88;26.66
79006;BME280;69202;45.498;-73.582;2023-05-07T01:55:54;101207.34;;;21.85;26.05
79006;BME280;69202;45.498;-73.582;2023-05-07T01:58:20;101198.53;;;21.83;26.21
79006;BME280;69202;45.498;-73.582;2023-05-07T02:00:46;101184.69;;;21.73;25.94
79006;BME280;69202;45.498;-73.582;2023-05-07T02:03:11;101196.88;;;21.82;26.09
79006;BME280;69202;45.498;-73.582;2023-05-07T02:05:37;101057.06;;;20.88;26.38
79006;BME280;69202;45.498;-73.582;2023-05-07T02:08:03;101099.06;;;21.11;26.32
79006;BME280;69202;45.498;-73.582;2023-05-07T02:10:29;101200.94;;;21.75;25.80
79006;BME280;69202;45.498;-73.582;2023-05-07T02:12:55;101195.69;;;21.73;25.36
79006;BME280;69202;45.498;-73.582;2023-05-07T02:15:21;101135.06;;;21.36;25.61
79006;BME280;69202;45.498;-73.582;2023-05-07T02:18:04;101136.41;;;21.28;25.37
79006;BME280;69202;45.498;-73.582;2023-05-07T02:20:30;101128.97;;;21.29;25.87
79006;BME280;69202;45.498;-73.582;2023-05-07T02:22:56;101198.06;;;21.59;25.76
79006;BME280;69202;45.498;-73.582;2023-05-07T02:25:22;101169.78;;;21.37;26.29
79006;BME280;69202;45.498;-73.582;2023-05-07T02:27:48;101136.00;;;21.20;26.51
79006;BME280;69202;45.498;-73.582;2023-05-07T02:30:14;101179.16;;;21.41;26.67
79006;BME280;69202;45.498;-73.582;2023-05-07T02:32:40;101132.88;;;21.11;26.09
79006;BME280;69202;45.498;-73.582;2023-05-07T02:35:07;101160.94;;;21.35;26.74
79006;BME280;69202;45.498;-73.582;2023-05-07T02:37:33;101179.16;;;21.41;26.98
79006;BME280;69202;45.498;-73.582;2023-05-07T02:39:59;101042.16;;;20.57;26.70
79006;BME280;69202;45.498;-73.582;2023-05-07T02:42:24;101163.91;;;21.28;26.87
79006;BME280;69202;45.498;-73.582;2023-05-07T02:44:50;101187.88;;;21.33;26.77
79006;BME280;69202;45.498;-73.582;2023-05-07T02:47:16;101187.56;;;21.29;26.73
79006;BME280;69202;45.498;-73.582;2023-05-07T02:49:42;101185.09;;;21.28;27.46
79006;BME280;69202;45.498;-73.582;2023-05-07T02:52:08;101153.38;;;20.98;26.93
79006;BME280;69202;45.498;-73.582;2023-05-07T02:54:34;101083.38;;;20.57;27.08
79006;BME280;69202;45.498;-73.582;2023-05-07T02:57:00;101178.09;;;21.20;27.10
79006;BME280;69202;45.498;-73.582;2023-05-07T02:59:27;101175.34;;;21.20;26.85
79006;BME280;69202;45.498;-73.582;2023-05-07T03:01:53;101175.63;;;21.24;27.25
79006;BME280;69202;45.498;-73.582;2023-05-07T03:04:19;101144.31;;;20.98;27.09
79006;BME280;69202;45.498;-73.582;2023-05-07T03:06:45;101144.22;;;20.93;27.79
79006;BME280;69202;45.498;-73.582;2023-05-07T03:09:11;101093.56;;;20.62;28.17
79006;BME280;69202;45.498;-73.582;2023-05-07T03:11:38;101133.91;;;20.78;28.41
79006;BME280;69202;45.498;-73.582;2023-05-07T03:14:04;101123.91;;;20.72;28.60
79006;BME280;69202;45.498;-73.582;2023-05-07T03:16:29;101132.44;;;20.70;28.37
79006;BME280;69202;45.498;-73.582;2023-05-07T03:18:55;101159.84;;;20.87;28.69
79006;BME280;69202;45.498;-73.582;2023-05-07T03:21:21;101167.19;;;20.82;29.37
79006;BME280;69202;45.498;-73.582;2023-05-07T03:23:47;101141.94;;;20.63;28.87
79006;BME280;69202;45.498;-73.582;2023-05-07T03:26:13;101166.94;;;20.83;28.65
79006;BME280;69202;45.498;-73.582;2023-05-07T03:28:39;101166.50;;;20.69;28.77
79006;BME280;69202;45.498;-73.582;2023-05-07T03:31:05;101072.84;;;20.10;28.87
79006;BME280;69202;45.498;-73.582;2023-05-07T03:33:33;101105.44;;;20.24;28.64
79006;BME280;69202;45.498;-73.582;2023-05-07T03:36:00;101119.47;;;20.27;28.77
79006;BME280;69202;45.498;-73.582;2023-05-07T03:38:26;101097.06;;;20.13;29.10
79006;BME280;69202;45.498;-73.582;2023-05-07T03:40:52;101169.19;;;20.64;28.63
79006;BME280;69202;45.498;-73.582;2023-05-07T03:43:18;101089.91;;;20.12;28.54
79006;BME280;69202;45.498;-73.582;2023-05-07T03:45:44;101080.63;;;19.97;28.94
79006;BME280;69202;45.498;-73.582;2023-05-07T03:48:10;101142.94;;;20.35;29.56
79006;BME280;69202;45.498;-73.582;2023-05-07T03:50:37;101092.06;;;20.10;29.35
79006;BME280;69202;45.498;-73.582;2023-05-07T03:53:03;101161.81;;;20.48;29.92
79006;BME280;69202;45.498;-73.582;2023-05-07T03:55:29;101161.25;;;20.46;29.28
79006;BME280;69202;45.498;-73.582;2023-05-07T03:57:55;101157.56;;;20.40;29.80
79006;BME280;69202;45.498;-73.582;2023-05-07T04:00:22;101147.78;;;20.28;30.26
79006;BME280;69202;45.498;-73.582;2023-05-07T04:02:48;101094.75;;;19.88;30.79
79006;BME280;69202;45.498;-73.582;2023-05-07T04:05:14;101162.34;;;20.28;30.15
79006;BME280;69202;45.498;-73.582;2023-05-07T04:07:41;101108.16;;;20.02;30.25
79006;BME280;69202;45.498;-73.582;2023-05-07T04:10:07;101151.03;;;20.25;30.80
79006;BME280;69202;45.498;-73.582;2023-05-07T04:12:33;101147.06;;;20.15;30.51
79006;BME280;69202;45.498;-73.582;2023-05-07T04:14:59;101158.03;;;20.15;31.11
79006;BME280;69202;45.498;-73.582;2023-05-07T04:17:25;101132.63;;;19.86;31.02
79006;BME280;69202;45.498;-73.582;2023-05-07T04:19:51;101119.06;;;19.80;30.66
79006;BME280;69202;45.498;-73.582;2023-05-07T04:22:16;101151.56;;;20.05;30.95
79006;BME280;69202;45.498;-73.582;2023-05-07T04:24:42;101092.16;;;19.60;30.98
79006;BME280;69202;45.498;-73.582;2023-05-07T04:27:08;101152.41;;;20.05;30.35
79006;BME280;69202;45.498;-73.582;2023-05-07T04:29:34;101093.88;;;19.66;30.39
79006;BME280;69202;45.498;-73.582;2023-05-07T04:32:00;101163.22;;;20.12;30.47
79006;BME280;69202;45.498;-73.582;2023-05-07T04:34:26;101099.00;;;19.79;30.61
79006;BME280;69202;45.498;-73.582;2023-05-07T04:36:52;101088.41;;;19.66;30.98
79006;BME280;69202;45.498;-73.582;2023-05-07T04:39:18;101140.50;;;20.00;30.84
79006;BME280;69202;45.498;-73.582;2023-05-07T04:41:44;101107.50;;;19.78;30.83
79006;BME280;69202;45.498;-73.582;2023-05-07T04:44:10;101167.00;;;20.11;30.87
79006;BME280;69202;45.498;-73.582;2023-05-07T04:46:36;101097.03;;;19.75;30.74
79006;BME280;69202;45.498;-73.582;2023-05-07T04:49:02;101051.13;;;19.37;31.10
79006;BME280;69202;45.498;-73.582;2023-05-07T04:51:28;101154.88;;;20.07;31.21
79006;BME280;69202;45.498;-73.582;2023-05-07T04:53:54;101182.66;;;20.10;31.13
79006;BME280;69202;45.498;-73.582;2023-05-07T04:56:20;101118.66;;;19.71;31.71
79006;BME280;69202;45.498;-73.582;2023-05-07T04:58:46;101122.97;;;19.67;31.80
79006;BME280;69202;45.498;-73.582;2023-05-07T05:01:12;101078.91;;;19.40;31.66
79006;BME280;69202;45.498;-73.582;2023-05-07T05:03:38;101131.78;;;19.69;33.54
79006;BME280;69202;45.498;-73.582;2023-05-07T05:06:05;101106.75;;;19.49;32.82
79006;BME280;69202;45.498;-73.582;2023-05-07T05:08:31;101176.53;;;19.86;32.70
79006;BME280;69202;45.498;-73.582;2023-05-07T05:10:57;101075.47;;;19.16;32.88
79006;BME280;69202;45.498;-73.582;2023-05-07T05:13:23;101177.19;;;19.77;32.86
79006;BME280;69202;45.498;-73.582;2023-05-07T05:15:49;101182.25;;;19.68;33.28
79006;BME280;69202;45.498;-73.582;2023-05-07T05:18:15;101112.03;;;19.22;33.32
79006;BME280;69202;45.498;-73.582;2023-05-07T05:20:41;101159.34;;;19.46;33.60
79006;BME280;69202;45.498;-73.582;2023-05-07T05:23:07;101047.81;;;18.72;34.33
79006;BME280;69202;45.498;-73.582;2023-05-07T05:25:33;101137.16;;;19.30;34.39
79006;BME280;69202;45.498;-73.582;2023-05-07T05:27:59;101072.41;;;18.84;34.47
79006;BME280;69202;45.498;-73.582;2023-05-07T05:30:25;101108.44;;;19.04;34.48
79006;BME280;69202;45.498;-73.582;2023-05-07T05:32:51;101113.00;;;18.99;34.75
79006;BME280;69202;45.498;-73.582;2023-05-07T05:35:17;101123.97;;;18.99;35.04
79006;BME280;69202;45.498;-73.582;2023-05-07T05:37:43;101126.59;;;18.94;35.32
79006;BME280;69202;45.498;-73.582;2023-05-07T05:40:09;101114.84;;;18.82;35.34
79006;BME280;69202;45.498;-73.582;2023-05-07T05:42:35;101138.19;;;18.84;35.38
79006;BME280;69202;45.498;-73.582;2023-05-07T05:45:01;101130.38;;;18.76;35.64
79006;BME280;69202;45.498;-73.582;2023-05-07T05:47:27;101163.88;;;18.95;36.12
79006;BME280;69202;45.498;-73.582;2023-05-07T05:49:53;101079.50;;;18.28;36.28
79006;BME280;69202;45.498;-73.582;2023-05-07T05:52:18;101130.00;;;18.61;36.13
79006;BME280;69202;45.498;-73.582;2023-05-07T05:54:45;101056.91;;;18.09;36.33
79006;BME280;69202;45.498;-73.582;2023-05-07T05:57:11;101124.94;;;18.41;36.35
79006;BME280;69202;45.498;-73.582;2023-05-07T05:59:37;101165.38;;;18.62;36.22
79006;BME280;69202;45.498;-73.582;2023-05-07T06:02:03;101088.22;;;18.13;36.33
79006;BME280;69202;45.498;-73.582;2023-05-07T06:04:28;101033.88;;;17.82;36.68
79006;BME280;69202;45.498;-73.582;2023-05-07T06:06:54;101171.47;;;18.53;37.02
79006;BME280;69202;45.498;-73.582;2023-05-07T06:09:22;101157.69;;;18.48;37.62
79006;BME280;69202;45.498;-73.582;2023-05-07T06:11:48;101151.16;;;18.37;38.18
79006;BME280;69202;45.498;-73.582;2023-05-07T06:14:14;101113.91;;;18.12;38.68
79006;BME280;69202;45.498;-73.582;2023-05-07T06:16:40;101152.69;;;18.33;38.14
79006;BME280;69202;45.498;-73.582;2023-05-07T06:19:06;101141.50;;;18.11;38.46
79006;BME280;69202;45.498;-73.582;2023-05-07T06:21:32;101121.53;;;17.87;38.86
79006;BME280;69202;45.498;-73.582;2023-05-07T06:23:58;101018.16;;;17.19;38.84
79006;BME280;69202;45.498;-73.582;2023-05-07T06:26:24;101092.84;;;17.54;39.29
79006;BME280;69202;45.498;-73.582;2023-05-07T06:28:50;101071.06;;;17.36;39.61
79006;BME280;69202;45.498;-73.582;2023-05-07T06:31:19;101159.84;;;17.87;39.43
79006;BME280;69202;45.498;-73.582;2023-05-07T06:33:48;101146.75;;;17.77;39.57
79006;BME280;69202;45.498;-73.582;2023-05-07T06:36:15;101159.47;;;17.72;40.27
79006;BME280;69202;45.498;-73.582;2023-05-07T06:38:41;100940.84;;;16.35;39.60
79006;BME280;69202;45.498;-73.582;2023-05-07T06:41:07;101117.88;;;17.40;40.28
79006;BME280;69202;45.498;-73.582;2023-05-07T06:43:33;101133.00;;;17.42;40.60
79006;BME280;69202;45.498;-73.582;2023-05-07T06:45:59;101158.09;;;17.51;40.36
79006;BME280;69202;45.498;-73.582;2023-05-07T06:48:25;101139.75;;;17.40;40.52
79006;BME280;69202;45.498;-73.582;2023-05-07T06:50:51;101140.81;;;17.39;40.55
79006;BME280;69202;45.498;-73.582;2023-05-07T06:53:17;101107.50;;;17.18;40.31
79006;BME280;69202;45.498;-73.582;2023-05-07T06:55:43;101020.19;;;16.52;40.86
79006;BME280;69202;45.498;-73.582;2023-05-07T06:58:09;101144.63;;;17.38;40.88
79006;BME280;69202;45.498;-73.582;2023-05-07T07:00:35;101136.97;;;17.16;41.36
79006;BME280;69202;45.498;-73.582;2023-05-07T07:03:01;101128.16;;;17.14;41.16
79006;BME280;69202;45.498;-73.582;2023-05-07T07:05:27;101135.44;;;17.20;41.60
79006;BME280;69202;45.498;-73.582;2023-05-07T07:07:53;101134.47;;;17.15;41.71
79006;BME280;69202;45.498;-73.582;2023-05-07T07:10:20;101062.41;;;16.67;41.64
79006;BME280;69202;45.498;-73.582;2023-05-07T07:12:45;101119.72;;;16.86;41.95
79006;BME280;69202;45.498;-73.582;2023-05-07T07:15:12;101109.22;;;16.71;42.36
79006;BME280;69202;45.498;-73.582;2023-05-07T07:17:38;101084.94;;;16.63;41.74
79006;BME280;69202;45.498;-73.582;2023-05-07T07:20:05;101142.03;;;17.01;42.01
79006;BME280;69202;45.498;-73.582;2023-05-07T07:22:31;101069.69;;;16.55;41.98
79006;BME280;69202;45.498;-73.582;2023-05-07T07:24:57;101021.59;;;16.24;42.50
79006;BME280;69202;45.498;-73.582;2023-05-07T07:27:23;101137.84;;;16.98;42.11
79006;BME280;69202;45.498;-73.582;2023-05-07T07:29:49;101051.00;;;16.40;42.12
79006;BME280;69202;45.498;-73.582;2023-05-07T07:32:15;101033.03;;;16.33;41.84
79006;BME280;69202;45.498;-73.582;2023-05-07T07:34:41;101083.28;;;16.62;42.33
79006;BME280;69202;45.498;-73.582;2023-05-07T07:37:07;101132.00;;;16.95;41.72
79006;BME280;69202;45.498;-73.582;2023-05-07T07:39:33;101105.19;;;16.73;42.46
79006;BME280;69202;45.498;-73.582;2023-05-07T07:41:59;101048.13;;;16.35;41.72
79006;BME280;69202;45.498;-73.582;2023-05-07T07:44:25;101066.19;;;16.36;42.29
79006;BME280;69202;45.498;-73.582;2023-05-07T07:46:51;101046.63;;;16.21;42.67
79006;BME280;69202;45.498;-73.582;2023-05-07T07:49:17;101075.81;;;16.21;42.84
79006;BME280;69202;45.498;-73.582;2023-05-07T07:51:43;101068.75;;;16.31;42.98
79006;BME280;69202;45.498;-73.582;2023-05-07T07:54:09;101130.28;;;16.64;43.37
79006;BME280;69202;45.498;-73.582;2023-05-07T07:56:35;101053.22;;;16.13;43.66
79006;BME280;69202;45.498;-73.582;2023-05-07T07:59:01;101132.41;;;16.62;43.53
79006;BME280;69202;45.498;-73.582;2023-05-07T08:01:29;101093.25;;;16.38;43.66
79006;BME280;69202;45.498;-73.582;2023-05-07T08:03:55;101118.59;;;16.57;43.52
79006;BME280;69202;45.498;-73.582;2023-05-07T08:06:24;101098.59;;;16.44;43.79
79006;BME280;69202;45.498;-73.582;2023-05-07T08:08:51;101061.16;;;16.15;43.89
79006;BME280;69202;45.498;-73.582;2023-05-07T08:11:17;101018.28;;;15.67;43.98
79006;BME280;69202;45.498;-73.582;2023-05-07T08:13:43;101068.00;;;16.06;43.71
79006;BME280;69202;45.498;-73.582;2023-05-07T08:16:10;101066.66;;;15.97;43.58
79006;BME280;69202;45.498;-73.582;2023-05-07T08:18:36;101004.09;;;15.58;43.74
79006;BME280;69202;45.498;-73.582;2023-05-07T08:21:02;101118.75;;;16.25;44.00
79006;BME280;69202;45.498;-73.582;2023-05-07T08:23:28;101131.38;;;16.26;44.16
79006;BME280;69202;45.498;-73.582;2023-05-07T08:25:54;101111.97;;;16.16;44.99
79006;BME280;69202;45.498;-73.582;2023-05-07T08:28:20;101118.09;;;16.11;44.71
79006;BME280;69202;45.498;-73.582;2023-05-07T08:30:47;101117.13;;;16.06;45.66
79006;BME280;69202;45.498;-73.582;2023-05-07T08:33:13;101096.03;;;15.95;45.51
79006;BME280;69202;45.498;-73.582;2023-05-07T08:35:39;101096.66;;;15.97;44.80
79006;BME280;69202;45.498;-73.582;2023-05-07T08:38:05;101075.34;;;15.87;44.81
79006;BME280;69202;45.498;-73.582;2023-05-07T08:40:38;101063.53;;;15.75;44.80
79006;BME280;69202;45.498;-73.582;2023-05-07T08:43:06;101098.22;;;16.04;44.52
79006;BME280;69202;45.498;-73.582;2023-05-07T08:45:34;101026.16;;;15.50;44.83
79006;BME280;69202;45.498;-73.582;2023-05-07T08:48:03;101105.44;;;15.99;44.91
79006;BME280;69202;45.498;-73.582;2023-05-07T08:50:31;100976.47;;;15.12;45.43
79006;BME280;69202;45.498;-73.582;2023-05-07T08:52:57;101094.16;;;15.70;45.46
79006;BME280;69202;45.498;-73.582;2023-05-07T08:55:24;101115.34;;;15.93;45.86
79006;BME280;69202;45.498;-73.582;2023-05-07T08:57:50;101045.69;;;15.47;45.64
79006;BME280;69202;45.498;-73.582;2023-05-07T09:00:18;101093.88;;;15.78;45.22
79006;BME280;69202;45.498;-73.582;2023-05-07T09:02:44;100990.72;;;15.07;46.03
79006;BME280;69202;45.498;-73.582;2023-05-07T09:05:10;101074.75;;;15.60;45.98
79006;BME280;69202;45.498;-73.582;2023-05-07T09:07:36;101158.63;;;15.83;46.09
79006;BME280;69202;45.498;-73.582;2023-05-07T09:10:03;100993.94;;;14.97;46.03
79006;BME280;69202;45.498;-73.582;2023-05-07T09:12:29;101074.91;;;15.40;46.09
79006;BME280;69202;45.498;-73.582;2023-05-07T09:14:56;101032.97;;;15.16;46.16
79006;BME280;69202;45.498;-73.582;2023-05-07T09:17:22;101122.34;;;15.57;45.89
79006;BME280;69202;45.498;-73.582;2023-05-07T09:19:48;100984.44;;;14.82;46.18
79006;BME280;69202;45.498;-73.582;2023-05-07T09:22:14;101088.25;;;15.48;45.90
79006;BME280;69202;45.498;-73.582;2023-05-07T09:24:40;101103.03;;;15.66;45.69
79006;BME280;69202;45.498;-73.582;2023-05-07T09:27:06;101057.34;;;15.36;45.70
79006;BME280;69202;45.498;-73.582;2023-05-07T09:29:34;101101.75;;;15.68;45.83
79006;BME280;69202;45.498;-73.582;2023-05-07T09:32:06;101112.38;;;15.76;46.11
79006;BME280;69202;45.498;-73.582;2023-05-07T09:34:33;100987.75;;;14.90;45.96
79006;BME280;69202;45.498;-73.582;2023-05-07T09:37:03;101076.06;;;15.51;45.54
79006;BME280;69202;45.498;-73.582;2023-05-07T09:39:44;101090.75;;;15.50;45.95
79006;BME280;69202;45.498;-73.582;2023-05-07T09:42:11;100983.78;;;14.86;45.98
79006;BME280;69202;45.498;-73.582;2023-05-07T09:44:38;101012.13;;;15.04;46.08
79006;BME280;69202;45.498;-73.582;2023-05-07T09:47:05;101083.84;;;15.47;45.95
79006;BME280;69202;45.498;-73.582;2023-05-07T09:49:35;101118.97;;;15.62;46.37
79006;BME280;69202;45.498;-73.582;2023-05-07T09:52:02;100999.28;;;14.86;45.86
79006;BME280;69202;45.498;-73.582;2023-05-07T09:54:29;101034.69;;;15.11;45.65
79006;BME280;69202;45.498;-73.582;2023-05-07T09:56:56;101119.16;;;15.67;45.74
79006;BME280;69202;45.498;-73.582;2023-05-07T09:59:23;101066.13;;;15.38;45.85
79006;BME280;69202;45.498;-73.582;2023-05-07T10:01:51;101123.41;;;15.63;45.74
79006;BME280;69202;45.498;-73.582;2023-05-07T10:04:18;101063.28;;;15.26;46.02
79006;BME280;69202;45.498;-73.582;2023-05-07T10:06:46;101059.34;;;15.22;46.33
79006;BME280;69202;45.498;-73.582;2023-05-07T10:09:12;101067.44;;;15.29;46.35
79006;BME280;69202;45.498;-73.582;2023-05-07T10:11:39;101105.88;;;15.46;46.72
79006;BME280;69202;45.498;-73.582;2023-05-07T10:14:05;100966.81;;;14.59;46.42
79006;BME280;69202;45.498;-73.582;2023-05-07T10:16:33;101102.56;;;15.44;46.22
79006;BME280;69202;45.498;-73.582;2023-05-07T10:19:03;101085.88;;;15.34;46.48
79006;BME280;69202;45.498;-73.582;2023-05-07T10:21:30;101087.47;;;15.41;46.12
79006;BME280;69202;45.498;-73.582;2023-05-07T10:24:07;101063.84;;;15.35;45.86
79006;BME280;69202;45.498;-73.582;2023-05-07T10:26:44;101102.44;;;15.57;45.23
79006;BME280;69202;45.498;-73.582;2023-05-07T10:29:29;101079.69;;;15.45;44.67
79006;BME280;69202;45.498;-73.582;2023-05-07T10:34:42;101065.22;;;15.44;44.85
79006;BME280;69202;45.498;-73.582;2023-05-07T10:37:09;101096.75;;;15.65;45.46
79006;BME280;69202;45.498;-73.582;2023-05-07T10:39:37;101084.69;;;15.73;44.95
79006;BME280;69202;45.498;-73.582;2023-05-07T10:42:10;101061.31;;;15.58;44.55
79006;BME280;69202;45.498;-73.582;2023-05-07T10:44:36;100999.59;;;15.21;44.88
79006;BME280;69202;45.498;-73.582;2023-05-07T10:47:09;101087.00;;;15.76;44.06
79006;BME280;69202;45.498;-73.582;2023-05-07T10:49:37;101032.44;;;15.33;45.32
79006;BME280;69202;45.498;-73.582;2023-05-07T10:54:42;101054.72;;;15.23;46.77
79006;BME280;69202;45.498;-73.582;2023-05-07T10:59:56;101025.25;;;15.13;46.83
79006;BME280;69202;45.498;-73.582;2023-05-07T11:02:22;101019.81;;;15.13;47.11
79006;BME280;69202;45.498;-73.582;2023-05-07T11:05:25;101075.41;;;15.55;46.97
79006;BME280;69202;45.498;-73.582;2023-05-07T11:07:58;101015.34;;;15.19;47.10
79006;BME280;69202;45.498;-73.582;2023-05-07T11:10:56;101068.44;;;15.59;46.81
79006;BME280;69202;45.498;-73.582;2023-05-07T11:13:46;101027.75;;;15.40;45.91
79006;BME280;69202;45.498;-73.582;2023-05-07T11:16:23;101064.13;;;15.77;44.82
79006;BME280;69202;45.498;-73.582;2023-05-07T11:18:54;101062.53;;;15.87;44.11
79006;BME280;69202;45.498;-73.582;2023-05-07T11:21:40;101061.41;;;15.95;43.90
79006;BME280;69202;45.498;-73.582;2023-05-07T11:24:10;101043.00;;;15.91;43.79
79006;BME280;69202;45.498;-73.582;2023-05-07T11:29:20;100925.72;;;15.36;44.00
79006;BME280;69202;45.498;-73.582;2023-05-07T11:31:50;101046.63;;;16.21;42.96
79006;BME280;69202;45.498;-73.582;2023-05-07T11:34:24;101040.50;;;16.26;43.49
79006;BME280;69202;45.498;-73.582;2023-05-07T11:36:51;100898.53;;;15.47;42.89
79006;BME280;69202;45.498;-73.582;2023-05-07T11:39:24;101032.69;;;16.29;43.37
79006;BME280;69202;45.498;-73.582;2023-05-07T11:41:50;101030.03;;;16.23;43.87
79006;BME280;69202;45.498;-73.582;2023-05-07T11:44:16;101034.34;;;16.30;44.09
79006;BME280;69202;45.498;-73.582;2023-05-07T11:46:45;100988.22;;;16.10;43.99
79006;BME280;69202;45.498;-73.582;2023-05-07T11:49:11;100992.53;;;16.00;44.12
79006;BME280;69202;45.498;-73.582;2023-05-07T11:51:38;100999.66;;;16.01;44.18
79006;BME280;69202;45.498;-73.582;2023-05-07T11:54:04;100913.53;;;15.56;43.46
79006;BME280;69202;45.498;-73.582;2023-05-07T11:56:35;101023.84;;;16.45;43.14
79006;BME280;69202;45.498;-73.582;2023-05-07T11:59:01;101032.66;;;16.48;43.18
79006;BME280;69202;45.498;-73.582;2023-05-07T12:01:27;101026.72;;;16.51;43.15
79006;BME280;69202;45.498;-73.582;2023-05-07T12:03:53;100834.38;;;15.33;42.95
79006;BME280;69202;45.498;-73.582;2023-05-07T12:06:22;100994.53;;;16.41;43.09
79006;BME280;69202;45.498;-73.582;2023-05-07T12:08:51;101009.88;;;16.54;42.59
79006;BME280;69202;45.498;-73.582;2023-05-07T12:11:24;100991.72;;;16.48;42.63
79006;BME280;69202;45.498;-73.582;2023-05-07T12:13:51;101011.81;;;16.65;42.51
79006;BME280;69202;45.498;-73.582;2023-05-07T12:16:17;100884.94;;;15.84;42.87
79006;BME280;69202;45.498;-73.582;2023-05-07T12:18:45;100931.69;;;16.17;42.52
79006;BME280;69202;45.498;-73.582;2023-05-07T12:21:12;100908.28;;;16.10;43.03
79006;BME280;69202;45.498;-73.582;2023-05-07T12:23:38;100991.16;;;16.57;43.32
79006;BME280;69202;45.498;-73.582;2023-05-07T12:26:05;101022.44;;;16.73;42.82
79006;BME280;69202;45.498;-73.582;2023-05-07T12:28:35;100935.03;;;16.31;42.75
79006;BME280;69202;45.498;-73.582;2023-05-07T12:31:02;100980.25;;;16.57;42.74
79006;BME280;69202;45.498;-73.582;2023-05-07T12:33:29;100950.84;;;16.41;42.77
79006;BME280;69202;45.498;-73.582;2023-05-07T12:35:56;100930.66;;;16.30;43.22
79006;BME280;69202;45.498;-73.582;2023-05-07T12:38:22;100895.50;;;16.22;42.69
79006;BME280;69202;45.498;-73.582;2023-05-07T12:40:50;100987.69;;;16.80;42.98